LIRN Airport Information

Runway Information
Runway 06 Length 8622 ft width 148 ft
Elevation 284 ft Threshold 1309 ft Heading 58
Runway 24 Length 8622 ft Width 148 ft
Elevation 223 ft Threshold 624 ft Heading 238
Airport Frequencies
Type APP Name NAPOLI RAD Frequency 124.35 MHZ
Type ATIS Name ATIS Frequency 135.975 MHZ
Type DIR Name NAPOLI DIR Frequency 120.95 MHZ
Type GCCD Name NAPOLI GND Frequency 121.9 MHZ
Type OPS Name USN BASE O Frequency 118.275 MHZ
Type PMSV Name PMSV METRO Frequency 34.1 MHZ
Type POST Name ATOC Frequency 118.275 MHZ
Type TWR Name NAPOLI TWR Frequency 118.5 MHZ
Airport Navaids
Type VOR-DME Name Pomigliano Frequency 117850 KHZ
Type NDB Name Pomigliano Frequency 351 KHZ
Airport Weather Information & NOTAM
ADDS - METARS form results

(1511 UTC 16 April 2021)
Data provider http://aviationweather.gov/metar/data/
 
METAR text: LIRN 161450Z 10005KT 040V160 9999 FEW040 BKN070 12/M01 Q1014 NOSIG
Conditions at: LIRN (NAPLES/CAPODICHI, IT) observed 1450 UTC 16 April 2021
Temperature: 12.0°C (54°F)
Dewpoint: -1.0°C (30°F) [RH = 40%]
Pressure (altimeter): 29.94 inches Hg (1014.0 mb)
Winds: from the E (100 degrees) at 6 MPH (5 knots; 2.6 m/s)
Visibility: 6 or more miles (10+ km)
Ceiling: 7000 feet AGL
Clouds: few clouds at 4000 feet AGL
broken clouds at 7000 feet AGL
Weather: no significant weather observed at this time

METAR text: LIRN 161420Z 06004KT 030V110 9999 FEW040 BKN070 12/M01 Q1013 NOSIG
Conditions at: LIRN (NAPLES/CAPODICHI, IT) observed 1420 UTC 16 April 2021
Temperature: 12.0°C (54°F)
Dewpoint: -1.0°C (30°F) [RH = 40%]
Pressure (altimeter): 29.91 inches Hg (1013.0 mb)
Winds: from the ENE (60 degrees) at 5 MPH (4 knots; 2.1 m/s)
Visibility: 6 or more miles (10+ km)
Ceiling: 7000 feet AGL
Clouds: few clouds at 4000 feet AGL
broken clouds at 7000 feet AGL
Weather: no significant weather observed at this time

Forecast for: LIRN (NAPLES/CAPODICHI, IT)
Text: TAF LIRN 161100Z 1612/1712 04010KT 9999 SCT040
Forecast period: 1200 UTC 16 April 2021 to 1200 UTC 17 April 2021
Forecast type: FROM: standard forecast or significant change
Winds: from the NE (40 degrees) at 12 MPH (10 knots; 5.1 m/s)
Visibility: 6 or more miles (10+ km)
Ceiling: at least 12,000 feet AGL
Clouds: scattered clouds at 4000 feet AGL
Weather: no significant weather forecast for this period